sensor_id;sensor_type;location;lat;lon;timestamp;pressure;altitude;pressure_sealevel;temperature;humidity
55604;BME280;41468;48.838;9.330;2023-03-31T00:00:19;97730.88;;;12.66;68.14
55604;BME280;41468;48.838;9.330;2023-03-31T00:02:46;97723.88;;;12.58;67.87
55604;BME280;41468;48.838;9.330;2023-03-31T00:05:13;97715.25;;;12.59;68.26
55604;BME280;41468;48.838;9.330;2023-03-31T00:07:44;97711.72;;;12.59;67.99
55604;BME280;41468;48.838;9.330;2023-03-31T00:10:11;97716.81;;;12.53;68.52
55604;BME280;41468;48.838;9.330;2023-03-31T00:12:44;97701.59;;;12.45;69.95
55604;BME280;41468;48.838;9.330;2023-03-31T00:15:11;97697.69;;;12.35;70.71
55604;BME280;41468;48.838;9.330;2023-03-31T00:17:38;97693.38;;;12.38;70.51
55604;BME280;41468;48.838;9.330;2023-03-31T00:20:06;97693.78;;;12.36;70.43
55604;BME280;41468;48.838;9.330;2023-03-31T00:22:38;97689.50;;;12.32;70.53
55604;BME280;41468;48.838;9.330;2023-03-31T00:25:12;97684.78;;;12.32;71.13
55604;BME280;41468;48.838;9.330;2023-03-31T00:27:42;97677.78;;;12.28;71.50
55604;BME280;41468;48.838;9.330;2023-03-31T00:30:11;97678.56;;;12.21;72.03
55604;BME280;41468;48.838;9.330;2023-03-31T00:32:38;97676.22;;;12.23;71.58
55604;BME280;41468;48.838;9.330;2023-03-31T00:35:05;97669.97;;;12.08;72.32
55604;BME280;41468;48.838;9.330;2023-03-31T00:37:32;97661.75;;;12.15;71.83
55604;BME280;41468;48.838;9.330;2023-03-31T00:39:59;97656.69;;;12.07;72.91
55604;BME280;41468;48.838;9.330;2023-03-31T00:42:26;97648.09;;;12.12;72.01
55604;BME280;41468;48.838;9.330;2023-03-31T00:47:48;97656.69;;;12.18;72.33
55604;BME280;41468;48.838;9.330;2023-03-31T00:50:20;97642.59;;;12.15;71.11
55604;BME280;41468;48.838;9.330;2023-03-31T00:52:54;97642.59;;;12.23;71.01
55604;BME280;41468;48.838;9.330;2023-03-31T00:55:26;97630.47;;;12.16;70.53
55604;BME280;41468;48.838;9.330;2023-03-31T00:57:56;97623.03;;;12.21;70.80
55604;BME280;41468;48.838;9.330;2023-03-31T01:00:23;97625.41;;;12.15;71.49
55604;BME280;41468;48.838;9.330;2023-03-31T01:02:54;97634.00;;;12.17;71.74
55604;BME280;41468;48.838;9.330;2023-03-31T01:05:29;97628.53;;;12.21;70.72
55604;BME280;41468;48.838;9.330;2023-03-31T01:07:58;97638.66;;;12.27;70.53
55604;BME280;41468;48.838;9.330;2023-03-31T01:10:26;97632.44;;;12.23;70.87
55604;BME280;41468;48.838;9.330;2023-03-31T01:12:53;97630.06;;;12.29;70.23
55604;BME280;41468;48.838;9.330;2023-03-31T01:15:21;97625.38;;;12.26;70.90
55604;BME280;41468;48.838;9.330;2023-03-31T01:17:48;97619.13;;;12.25;71.20
55604;BME280;41468;48.838;9.330;2023-03-31T01:20:19;97620.69;;;12.33;69.72
55604;BME280;41468;48.838;9.330;2023-03-31T01:31:44;97591.72;;;12.40;69.12
55604;BME280;41468;48.838;9.330;2023-03-31T01:42:53;97566.31;;;12.32;70.66
55604;BME280;41468;48.838;9.330;2023-03-31T01:45:34;97563.16;;;12.37;69.90
55604;BME280;41468;48.838;9.330;2023-03-31T01:48:13;97564.72;;;12.42;69.25
55604;BME280;41468;48.838;9.330;2023-03-31T01:51:02;97574.47;;;12.50;68.77
55604;BME280;41468;48.838;9.330;2023-03-31T01:53:37;97574.88;;;12.45;69.50
55604;BME280;41468;48.838;9.330;2023-03-31T01:58:43;97574.81;;;12.52;68.50
55604;BME280;41468;48.838;9.330;2023-03-31T02:01:22;97583.06;;;12.41;69.34
55604;BME280;41468;48.838;9.330;2023-03-31T02:03:57;97583.84;;;12.45;68.80
55604;BME280;41468;48.838;9.330;2023-03-31T02:06:30;97593.25;;;12.48;68.71
55604;BME280;41468;48.838;9.330;2023-03-31T02:09:09;97584.63;;;12.46;69.92
55604;BME280;41468;48.838;9.330;2023-03-31T02:11:37;97577.19;;;12.50;69.75
55604;BME280;41468;48.838;9.330;2023-03-31T02:14:09;97585.38;;;12.53;69.36
55604;BME280;41468;48.838;9.330;2023-03-31T02:16:39;97585.81;;;12.45;69.10
55604;BME280;41468;48.838;9.330;2023-03-31T02:19:16;97579.16;;;12.46;68.26
55604;BME280;41468;48.838;9.330;2023-03-31T02:21:46;97584.63;;;12.49;67.27
55604;BME280;41468;48.838;9.330;2023-03-31T02:24:18;97570.56;;;12.47;66.42
55604;BME280;41468;48.838;9.330;2023-03-31T02:27:12;97570.53;;;12.51;66.36
55604;BME280;41468;48.838;9.330;2023-03-31T02:29:40;97558.06;;;12.43;67.14
55604;BME280;41468;48.838;9.330;2023-03-31T02:32:28;97548.66;;;12.47;67.64
55604;BME280;41468;48.838;9.330;2023-03-31T02:34:58;97547.88;;;12.43;70.22
55604;BME280;41468;48.838;9.330;2023-03-31T02:37:27;97545.19;;;12.36;71.37
55604;BME280;41468;48.838;9.330;2023-03-31T02:39:58;97536.59;;;12.34;72.89
55604;BME280;41468;48.838;9.330;2023-03-31T02:42:26;97539.31;;;12.30;72.57
55604;BME280;41468;48.838;9.330;2023-03-31T02:45:05;97524.88;;;12.33;72.30
55604;BME280;41468;48.838;9.330;2023-03-31T02:47:33;97520.13;;;12.37;71.95
55604;BME280;41468;48.838;9.330;2023-03-31T02:50:01;97505.72;;;12.30;72.94
55604;BME280;41468;48.838;9.330;2023-03-31T02:53:08;97496.34;;;12.27;73.94
55604;BME280;41468;48.838;9.330;2023-03-31T02:55:52;97471.34;;;12.22;74.54
55604;BME280;41468;48.838;9.330;2023-03-31T02:58:44;97461.16;;;12.22;73.71
55604;BME280;41468;48.838;9.330;2023-03-31T03:04:19;97460.81;;;12.20;74.05
55604;BME280;41468;48.838;9.330;2023-03-31T03:07:25;97448.34;;;12.12;74.50
55604;BME280;41468;48.838;9.330;2023-03-31T03:10:10;97442.44;;;12.21;73.81
55604;BME280;41468;48.838;9.330;2023-03-31T03:15:29;97413.47;;;12.20;74.10
55604;BME280;41468;48.838;9.330;2023-03-31T03:17:58;97392.41;;;12.13;73.27
55604;BME280;41468;48.838;9.330;2023-03-31T03:20:25;97385.44;;;12.05;73.38
55604;BME280;41468;48.838;9.330;2023-03-31T03:22:52;97377.97;;;12.09;73.94
55604;BME280;41468;48.838;9.330;2023-03-31T03:25:19;97371.72;;;12.12;73.72
55604;BME280;41468;48.838;9.330;2023-03-31T03:27:50;97372.88;;;12.11;73.70
55604;BME280;41468;48.838;9.330;2023-03-31T03:30:18;97357.31;;;12.04;73.75
55604;BME280;41468;48.838;9.330;2023-03-31T03:32:45;97348.69;;;12.06;73.83
55604;BME280;41468;48.838;9.330;2023-03-31T03:35:12;97341.72;;;11.94;74.52
55604;BME280;41468;48.838;9.330;2023-03-31T03:37:39;97344.81;;;12.00;74.65
55604;BME280;41468;48.838;9.330;2023-03-31T03:40:06;97332.25;;;12.06;75.03
55604;BME280;41468;48.838;9.330;2023-03-31T03:42:34;97334.72;;;11.89;75.81
55604;BME280;41468;48.838;9.330;2023-03-31T03:45:01;97319.91;;;11.76;76.40
55604;BME280;41468;48.838;9.330;2023-03-31T03:47:28;97319.91;;;11.76;76.86
55604;BME280;41468;48.838;9.330;2023-03-31T03:49:54;97318.38;;;11.75;77.17
55604;BME280;41468;48.838;9.330;2023-03-31T03:52:21;97315.63;;;11.75;76.81
55604;BME280;41468;48.838;9.330;2023-03-31T03:54:48;97305.44;;;11.79;76.69
55604;BME280;41468;48.838;9.330;2023-03-31T03:57:15;97306.69;;;11.67;76.99
55604;BME280;41468;48.838;9.330;2023-03-31T03:59:42;97299.66;;;11.63;78.19
55604;BME280;41468;48.838;9.330;2023-03-31T04:02:16;97286.75;;;11.74;77.04
55604;BME280;41468;48.838;9.330;2023-03-31T04:04:43;97287.19;;;11.62;78.21
55604;BME280;41468;48.838;9.330;2023-03-31T04:07:09;97273.78;;;11.82;76.38
55604;BME280;41468;48.838;9.330;2023-03-31T04:09:36;97262.13;;;11.70;76.93
55604;BME280;41468;48.838;9.330;2023-03-31T04:12:03;97263.31;;;11.69;76.75
55604;BME280;41468;48.838;9.330;2023-03-31T04:14:34;97257.84;;;11.66;77.42
55604;BME280;41468;48.838;9.330;2023-03-31T04:17:01;97246.63;;;11.49;77.76
55604;BME280;41468;48.838;9.330;2023-03-31T04:19:28;97242.03;;;11.39;78.41
55604;BME280;41468;48.838;9.330;2023-03-31T04:21:54;97238.84;;;11.44;78.40
55604;BME280;41468;48.838;9.330;2023-03-31T04:24:25;97223.63;;;11.43;78.20
55604;BME280;41468;48.838;9.330;2023-03-31T04:26:59;97220.94;;;11.36;78.31
55604;BME280;41468;48.838;9.330;2023-03-31T04:29:26;97209.28;;;11.25;79.10
55604;BME280;41468;48.838;9.330;2023-03-31T04:31:54;97213.19;;;11.31;78.87
55604;BME280;41468;48.838;9.330;2023-03-31T04:34:25;97194.88;;;11.17;79.77
55604;BME280;41468;48.838;9.330;2023-03-31T04:37:02;97192.13;;;11.24;79.64
55604;BME280;41468;48.838;9.330;2023-03-31T04:39:29;97184.69;;;11.25;79.91
55604;BME280;41468;48.838;9.330;2023-03-31T04:41:57;97197.91;;;11.34;79.42
55604;BME280;41468;48.838;9.330;2023-03-31T04:44:25;97202.19;;;11.38;79.38
55604;BME280;41468;48.838;9.330;2023-03-31T04:46:53;97199.47;;;11.35;79.20
55604;BME280;41468;48.838;9.330;2023-03-31T04:49:19;97195.63;;;11.25;80.50
55604;BME280;41468;48.838;9.330;2023-03-31T04:51:46;97194.09;;;11.24;80.26
55604;BME280;41468;48.838;9.330;2023-03-31T04:54:13;97169.84;;;11.30;79.56
55604;BME280;41468;48.838;9.330;2023-03-31T04:56:40;97170.22;;;11.28;79.59
55604;BME280;41468;48.838;9.330;2023-03-31T04:59:06;97156.16;;;11.33;78.80
55604;BME280;41468;48.838;9.330;2023-03-31T05:01:34;97158.41;;;11.45;78.35
55604;BME280;41468;48.838;9.330;2023-03-31T05:04:03;97155.38;;;11.33;78.62
55604;BME280;41468;48.838;9.330;2023-03-31T05:06:30;97157.66;;;11.45;78.02
55604;BME280;41468;48.838;9.330;2023-03-31T05:08:57;97149.41;;;11.48;77.80
55604;BME280;41468;48.838;9.330;2023-03-31T05:11:23;97156.06;;;11.44;78.50
55604;BME280;41468;48.838;9.330;2023-03-31T05:13:50;97153.72;;;11.46;78.38
55604;BME280;41468;48.838;9.330;2023-03-31T05:16:24;97155.66;;;11.49;78.86
55604;BME280;41468;48.838;9.330;2023-03-31T05:18:51;97157.66;;;11.41;78.50
55604;BME280;41468;48.838;9.330;2023-03-31T05:21:19;97171.59;;;11.58;77.99
55604;BME280;41468;48.838;9.330;2023-03-31T05:23:47;97181.84;;;11.50;79.19
55604;BME280;41468;48.838;9.330;2023-03-31T05:26:14;97194.69;;;11.49;80.97
55604;BME280;41468;48.838;9.330;2023-03-31T05:28:41;97204.88;;;11.45;82.54
55604;BME280;41468;48.838;9.330;2023-03-31T05:31:09;97220.16;;;11.36;85.32
55604;BME280;41468;48.838;9.330;2023-03-31T05:33:36;97215.53;;;11.25;90.86
55604;BME280;41468;48.838;9.330;2023-03-31T05:36:11;97240.91;;;11.26;90.90
55604;BME280;41468;48.838;9.330;2023-03-31T05:38:39;97232.75;;;11.19;90.69
55604;BME280;41468;48.838;9.330;2023-03-31T05:41:06;97231.16;;;11.21;92.78
55604;BME280;41468;48.838;9.330;2023-03-31T05:43:35;97221.47;;;11.13;94.51
55604;BME280;41468;48.838;9.330;2023-03-31T05:46:02;97220.28;;;11.14;95.09
55604;BME280;41468;48.838;9.330;2023-03-31T05:48:30;97212.47;;;11.16;93.47
55604;BME280;41468;48.838;9.330;2023-03-31T05:50:57;97214.41;;;11.16;94.58
55604;BME280;41468;48.838;9.330;2023-03-31T05:53:25;97212.44;;;11.20;96.14
55604;BME280;41468;48.838;9.330;2023-03-31T05:55:56;97202.66;;;11.22;95.55
55604;BME280;41468;48.838;9.330;2023-03-31T05:58:24;97188.25;;;11.18;97.83
55604;BME280;41468;48.838;9.330;2023-03-31T06:03:37;97170.41;;;10.96;100.00
55604;BME280;41468;48.838;9.330;2023-03-31T06:06:04;97150.13;;;10.97;100.00
55604;BME280;41468;48.838;9.330;2023-03-31T06:08:31;97155.25;;;10.84;100.00
55604;BME280;41468;48.838;9.330;2023-03-31T06:10:58;97152.97;;;10.72;100.00
55604;BME280;41468;48.838;9.330;2023-03-31T06:13:25;97140.88;;;10.69;100.00
55604;BME280;41468;48.838;9.330;2023-03-31T06:15:54;97130.72;;;10.77;100.00
55604;BME280;41468;48.838;9.330;2023-03-31T06:18:21;97127.19;;;10.80;100.00
55604;BME280;41468;48.838;9.330;2023-03-31T06:20:48;97118.97;;;10.87;100.00
55604;BME280;41468;48.838;9.330;2023-03-31T06:23:14;97118.22;;;10.83;100.00
55604;BME280;41468;48.838;9.330;2023-03-31T06:25:41;97123.66;;;10.87;100.00
55604;BME280;41468;48.838;9.330;2023-03-31T06:28:17;97117.78;;;10.92;100.00
55604;BME280;41468;48.838;9.330;2023-03-31T06:30:43;97105.72;;;10.86;100.00
55604;BME280;41468;48.838;9.330;2023-03-31T06:33:10;97101.84;;;10.83;100.00
55604;BME280;41468;48.838;9.330;2023-03-31T06:35:49;97090.44;;;10.99;100.00
55604;BME280;41468;48.838;9.330;2023-03-31T06:38:16;97102.13;;;10.96;100.00
55604;BME280;41468;48.838;9.330;2023-03-31T06:40:42;97096.66;;;10.99;99.75
55604;BME280;41468;48.838;9.330;2023-03-31T06:43:09;97101.34;;;10.95;99.86
55604;BME280;41468;48.838;9.330;2023-03-31T06:45:36;97105.72;;;10.82;100.00
55604;BME280;41468;48.838;9.330;2023-03-31T06:48:03;97110.44;;;10.78;100.00
55604;BME280;41468;48.838;9.330;2023-03-31T06:50:30;97107.34;;;10.69;100.00
55604;BME280;41468;48.838;9.330;2023-03-31T06:52:56;97115.13;;;10.74;100.00
55604;BME280;41468;48.838;9.330;2023-03-31T06:55:24;97114.75;;;10.75;100.00
55604;BME280;41468;48.838;9.330;2023-03-31T06:57:51;97123.72;;;10.69;100.00
55604;BME280;41468;48.838;9.330;2023-03-31T07:00:17;97128.38;;;10.72;100.00
55604;BME280;41468;48.838;9.330;2023-03-31T07:02:48;97148.69;;;10.64;100.00
55604;BME280;41468;48.838;9.330;2023-03-31T07:05:15;97135.44;;;10.66;100.00
55604;BME280;41468;48.838;9.330;2023-03-31T07:07:41;97150.66;;;10.63;100.00
55604;BME280;41468;48.838;9.330;2023-03-31T07:10:11;97165.06;;;10.64;100.00
55604;BME280;41468;48.838;9.330;2023-03-31T07:12:38;97176.03;;;10.60;100.00
55604;BME280;41468;48.838;9.330;2023-03-31T07:15:05;97179.53;;;10.64;100.00
55604;BME280;41468;48.838;9.330;2023-03-31T07:17:32;97177.59;;;10.54;100.00
55604;BME280;41468;48.838;9.330;2023-03-31T07:19:59;97162.41;;;10.56;100.00
55604;BME280;41468;48.838;9.330;2023-03-31T07:22:25;97154.22;;;10.56;100.00
55604;BME280;41468;48.838;9.330;2023-03-31T07:24:52;97079.75;;;10.56;100.00
55604;BME280;41468;48.838;9.330;2023-03-31T07:27:19;97080.84;;;10.66;100.00
55604;BME280;41468;48.838;9.330;2023-03-31T07:29:46;97045.34;;;10.73;100.00
55604;BME280;41468;48.838;9.330;2023-03-31T07:32:12;97035.91;;;10.81;100.00
55604;BME280;41468;48.838;9.330;2023-03-31T07:34:39;97070.22;;;10.82;100.00
55604;BME280;41468;48.838;9.330;2023-03-31T07:37:07;97068.69;;;10.81;100.00
55604;BME280;41468;48.838;9.330;2023-03-31T07:39:34;97073.03;;;10.75;100.00
55604;BME280;41468;48.838;9.330;2023-03-31T07:42:02;97091.69;;;10.83;100.00
55604;BME280;41468;48.838;9.330;2023-03-31T07:44:28;97098.69;;;10.88;98.73
55604;BME280;41468;48.838;9.330;2023-03-31T07:46:55;97107.19;;;11.04;98.23
55604;BME280;41468;48.838;9.330;2023-03-31T07:49:23;97101.41;;;11.47;96.43
55604;BME280;41468;48.838;9.330;2023-03-31T07:51:50;97094.19;;;11.68;90.95
55604;BME280;41468;48.838;9.330;2023-03-31T07:54:17;97083.63;;;11.70;87.89
55604;BME280;41468;48.838;9.330;2023-03-31T07:56:44;97080.09;;;11.73;88.83
55604;BME280;41468;48.838;9.330;2023-03-31T07:59:11;97082.81;;;11.73;89.86
55604;BME280;41468;48.838;9.330;2023-03-31T08:01:38;97067.53;;;11.79;87.14
55604;BME280;41468;48.838;9.330;2023-03-31T08:04:04;97067.31;;;12.04;86.50
55604;BME280;41468;48.838;9.330;2023-03-31T08:06:31;97071.31;;;11.92;83.42
55604;BME280;41468;48.838;9.330;2023-03-31T08:08:58;97085.13;;;11.78;86.67
55604;BME280;41468;48.838;9.330;2023-03-31T08:11:25;97069.78;;;11.91;86.21
55604;BME280;41468;48.838;9.330;2023-03-31T08:13:52;97076.13;;;12.19;86.42
55604;BME280;41468;48.838;9.330;2023-03-31T08:16:18;97063.50;;;12.29;81.88
55604;BME280;41468;48.838;9.330;2023-03-31T08:18:45;97068.47;;;12.72;81.61
55604;BME280;41468;48.838;9.330;2023-03-31T08:21:12;97067.78;;;12.91;79.83
55604;BME280;41468;48.838;9.330;2023-03-31T08:23:39;97057.97;;;13.21;77.62
55604;BME280;41468;48.838;9.330;2023-03-31T08:26:14;97065.28;;;13.55;76.93
55604;BME280;41468;48.838;9.330;2023-03-31T08:28:44;97057.47;;;13.77;76.15
55604;BME280;41468;48.838;9.330;2023-03-31T08:31:11;97054.41;;;13.95;72.78
55604;BME280;41468;48.838;9.330;2023-03-31T08:33:41;97054.34;;;13.98;74.91
55604;BME280;41468;48.838;9.330;2023-03-31T08:36:10;97049.06;;;14.27;76.66
55604;BME280;41468;48.838;9.330;2023-03-31T08:38:40;97050.84;;;14.57;72.94
55604;BME280;41468;48.838;9.330;2023-03-31T08:44:18;97050.19;;;14.70;69.72
55604;BME280;41468;48.838;9.330;2023-03-31T08:46:47;97041.09;;;14.73;70.31
55604;BME280;41468;48.838;9.330;2023-03-31T08:49:17;97056.94;;;15.01;70.34
55604;BME280;41468;48.838;9.330;2023-03-31T08:51:55;97037.81;;;15.14;69.03
55604;BME280;41468;48.838;9.330;2023-03-31T08:54:33;97047.69;;;15.28;68.27
55604;BME280;41468;48.838;9.330;2023-03-31T08:57:11;97050.44;;;15.44;69.74
55604;BME280;41468;48.838;9.330;2023-03-31T08:59:40;97040.63;;;15.60;66.18
55604;BME280;41468;48.838;9.330;2023-03-31T09:02:18;97034.66;;;15.94;68.56
55604;BME280;41468;48.838;9.330;2023-03-31T09:05:01;97026.31;;;15.98;66.61
55604;BME280;41468;48.838;9.330;2023-03-31T09:07:47;97022.25;;;16.02;66.93
55604;BME280;41468;48.838;9.330;2023-03-31T09:15:49;97006.81;;;16.47;64.10
55604;BME280;41468;48.838;9.330;2023-03-31T09:20:49;96997.16;;;16.68;65.00
55604;BME280;41468;48.838;9.330;2023-03-31T09:23:28;96989.00;;;16.64;63.72
55604;BME280;41468;48.838;9.330;2023-03-31T09:25:58;96991.53;;;16.59;58.75
55604;BME280;41468;48.838;9.330;2023-03-31T09:28:35;96977.41;;;16.56;61.10
55604;BME280;41468;48.838;9.330;2023-03-31T09:31:13;96989.22;;;16.57;61.21
55604;BME280;41468;48.838;9.330;2023-03-31T09:33:44;96980.84;;;16.61;57.06
55604;BME280;41468;48.838;9.330;2023-03-31T09:36:19;96986.78;;;16.59;56.22
55604;BME280;41468;48.838;9.330;2023-03-31T09:38:49;96989.50;;;15.92;56.10
55604;BME280;41468;48.838;9.330;2023-03-31T09:41:17;97001.00;;;15.74;55.31
55604;BME280;41468;48.838;9.330;2023-03-31T09:43:45;96988.44;;;16.02;55.87
55604;BME280;41468;48.838;9.330;2023-03-31T09:46:25;97001.16;;;15.66;59.10
55604;BME280;41468;48.838;9.330;2023-03-31T09:49:05;97014.00;;;15.40;58.72
55604;BME280;41468;48.838;9.330;2023-03-31T09:51:36;96994.78;;;15.08;59.69
55604;BME280;41468;48.838;9.330;2023-03-31T09:54:21;96990.03;;;14.92;57.84
55604;BME280;41468;48.838;9.330;2023-03-31T09:56:50;96980.72;;;14.69;54.66
55604;BME280;41468;48.838;9.330;2023-03-31T09:59:33;96994.75;;;14.75;58.10
55604;BME280;41468;48.838;9.330;2023-03-31T10:02:23;96980.22;;;15.40;55.77
55604;BME280;41468;48.838;9.330;2023-03-31T10:04:53;96972.53;;;15.80;56.13
55604;BME280;41468;48.838;9.330;2023-03-31T10:07:22;96974.41;;;15.67;53.13
55604;BME280;41468;48.838;9.330;2023-03-31T10:09:50;96945.88;;;15.77;52.15
55604;BME280;41468;48.838;9.330;2023-03-31T10:12:20;96964.69;;;15.79;52.74
55604;BME280;41468;48.838;9.330;2023-03-31T10:14:53;96963.84;;;15.65;52.11
55604;BME280;41468;48.838;9.330;2023-03-31T10:17:26;96954.97;;;16.03;54.67
55604;BME280;41468;48.838;9.330;2023-03-31T10:19:56;96955.50;;;16.53;53.70
55604;BME280;41468;48.838;9.330;2023-03-31T10:24:51;96955.16;;;17.15;49.08
55604;BME280;41468;48.838;9.330;2023-03-31T10:29:52;96932.53;;;17.20;49.77
55604;BME280;41468;48.838;9.330;2023-03-31T10:34:49;96955.28;;;17.46;48.92
55604;BME280;41468;48.838;9.330;2023-03-31T10:37:18;96940.09;;;17.41;48.71
55604;BME280;41468;48.838;9.330;2023-03-31T10:39:56;96927.69;;;17.46;47.32
55604;BME280;41468;48.838;9.330;2023-03-31T10:42:24;96926.22;;;17.54;46.36
55604;BME280;41468;48.838;9.330;2023-03-31T10:45:17;96912.47;;;17.98;47.06
55604;BME280;41468;48.838;9.330;2023-03-31T10:48:02;96905.91;;;17.83;45.95
55604;BME280;41468;48.838;9.330;2023-03-31T10:50:32;96898.31;;;18.18;45.48
55604;BME280;41468;48.838;9.330;2023-03-31T10:53:02;96893.00;;;18.33;45.39
55604;BME280;41468;48.838;9.330;2023-03-31T10:55:35;96891.88;;;18.21;45.66
55604;BME280;41468;48.838;9.330;2023-03-31T10:58:16;96886.66;;;17.92;44.99
55604;BME280;41468;48.838;9.330;2023-03-31T11:09:44;96902.44;;;17.00;45.66
55604;BME280;41468;48.838;9.330;2023-03-31T11:12:37;96886.94;;;16.81;45.26
55604;BME280;41468;48.838;9.330;2023-03-31T11:20:37;96868.63;;;15.97;48.63
55604;BME280;41468;48.838;9.330;2023-03-31T11:25:51;96930.09;;;15.49;51.52
55604;BME280;41468;48.838;9.330;2023-03-31T11:31:13;97017.53;;;13.76;68.60
55604;BME280;41468;48.838;9.330;2023-03-31T11:34:13;97071.28;;;12.34;75.79
55604;BME280;41468;48.838;9.330;2023-03-31T11:39:59;97042.88;;;11.45;86.64
55604;BME280;41468;48.838;9.330;2023-03-31T11:42:38;97035.19;;;11.29;85.11
55604;BME280;41468;48.838;9.330;2023-03-31T11:45:20;97044.13;;;11.33;86.19
55604;BME280;41468;48.838;9.330;2023-03-31T11:47:51;97041.81;;;11.28;84.27
55604;BME280;41468;48.838;9.330;2023-03-31T11:50:26;97041.28;;;11.47;84.79
55604;BME280;41468;48.838;9.330;2023-03-31T11:53:14;97049.91;;;11.42;85.56
55604;BME280;41468;48.838;9.330;2023-03-31T11:55:42;97041.94;;;11.59;81.46
55604;BME280;41468;48.838;9.330;2023-03-31T11:58:12;97038.03;;;11.60;82.48
55604;BME280;41468;48.838;9.330;2023-03-31T12:00:55;97020.91;;;11.52;77.18
55604;BME280;41468;48.838;9.330;2023-03-31T12:03:37;97026.38;;;11.56;78.23
55604;BME280;41468;48.838;9.330;2023-03-31T12:06:10;97012.28;;;11.57;78.81
55604;BME280;41468;48.838;9.330;2023-03-31T12:09:02;97012.09;;;11.75;80.08
55604;BME280;41468;48.838;9.330;2023-03-31T12:11:37;97011.28;;;11.78;81.00
55604;BME280;41468;48.838;9.330;2023-03-31T12:14:33;97020.47;;;11.99;77.11
55604;BME280;41468;48.838;9.330;2023-03-31T12:17:09;97008.59;;;12.12;74.30
55604;BME280;41468;48.838;9.330;2023-03-31T12:19:52;97008.81;;;12.83;76.04
55604;BME280;41468;48.838;9.330;2023-03-31T12:22:43;97001.75;;;13.80;74.02
55604;BME280;41468;48.838;9.330;2023-03-31T12:25:12;96995.97;;;14.34;69.00
55604;BME280;41468;48.838;9.330;2023-03-31T12:27:44;96984.59;;;14.35;68.26
55604;BME280;41468;48.838;9.330;2023-03-31T12:33:23;96989.44;;;14.28;65.09
55604;BME280;41468;48.838;9.330;2023-03-31T12:39:04;96970.94;;;14.12;66.46
55604;BME280;41468;48.838;9.330;2023-03-31T12:47:02;96967.59;;;14.77;60.76
55604;BME280;41468;48.838;9.330;2023-03-31T12:52:11;96933.84;;;15.09;61.61
55604;BME280;41468;48.838;9.330;2023-03-31T12:57:21;96914.25;;;15.53;60.76
55604;BME280;41468;48.838;9.330;2023-03-31T13:00:14;96909.63;;;15.50;58.38
55604;BME280;41468;48.838;9.330;2023-03-31T13:02:45;96908.00;;;15.81;58.06
55604;BME280;41468;48.838;9.330;2023-03-31T13:08:06;96911.97;;;15.80;56.32
55604;BME280;41468;48.838;9.330;2023-03-31T13:10:56;96906.81;;;15.66;55.37
55604;BME280;41468;48.838;9.330;2023-03-31T13:13:23;96908.88;;;15.49;56.01
55604;BME280;41468;48.838;9.330;2023-03-31T13:15:57;96903.13;;;15.43;57.00
55604;BME280;41468;48.838;9.330;2023-03-31T13:18:30;96898.47;;;15.11;57.44
55604;BME280;41468;48.838;9.330;2023-03-31T13:21:04;96912.06;;;14.86;56.38
55604;BME280;41468;48.838;9.330;2023-03-31T13:23:34;96914.28;;;14.58;57.26
55604;BME280;41468;48.838;9.330;2023-03-31T13:26:03;96921.69;;;14.41;58.67
55604;BME280;41468;48.838;9.330;2023-03-31T13:28:37;96900.28;;;14.16;59.22
55604;BME280;41468;48.838;9.330;2023-03-31T13:31:08;96900.75;;;13.95;64.47
55604;BME280;41468;48.838;9.330;2023-03-31T13:33:41;96942.34;;;13.73;62.53
55604;BME280;41468;48.838;9.330;2023-03-31T13:39:22;96934.53;;;13.04;64.16
55604;BME280;41468;48.838;9.330;2023-03-31T13:45:00;96937.91;;;12.89;65.15
55604;BME280;41468;48.838;9.330;2023-03-31T13:48:10;96946.84;;;12.93;65.02
55604;BME280;41468;48.838;9.330;2023-03-31T13:51:09;96953.63;;;13.08;64.66
55604;BME280;41468;48.838;9.330;2023-03-31T13:53:49;96934.00;;;12.90;63.14
55604;BME280;41468;48.838;9.330;2023-03-31T13:59:37;96933.25;;;12.35;64.69
55604;BME280;41468;48.838;9.330;2023-03-31T14:02:38;96925.09;;;12.31;65.68
55604;BME280;41468;48.838;9.330;2023-03-31T14:05:44;96908.38;;;12.22;66.83
55604;BME280;41468;48.838;9.330;2023-03-31T14:13:43;96863.47;;;11.92;70.03
55604;BME280;41468;48.838;9.330;2023-03-31T14:16:11;96875.97;;;11.93;70.79
55604;BME280;41468;48.838;9.330;2023-03-31T14:18:45;96877.50;;;11.94;70.96
55604;BME280;41468;48.838;9.330;2023-03-31T14:21:28;96882.00;;;12.08;70.22
55604;BME280;41468;48.838;9.330;2023-03-31T14:27:41;96888.75;;;12.81;64.97
55604;BME280;41468;48.838;9.330;2023-03-31T14:30:46;96877.16;;;13.17;63.32
55604;BME280;41468;48.838;9.330;2023-03-31T14:33:27;96866.59;;;13.39;62.94
55604;BME280;41468;48.838;9.330;2023-03-31T14:36:08;96880.91;;;13.67;61.76
55604;BME280;41468;48.838;9.330;2023-03-31T14:38:39;96885.00;;;13.59;60.36
55604;BME280;41468;48.838;9.330;2023-03-31T14:41:05;96895.34;;;13.51;60.33
55604;BME280;41468;48.838;9.330;2023-03-31T14:43:36;96881.63;;;13.31;61.27
55604;BME280;41468;48.838;9.330;2023-03-31T14:46:07;96879.03;;;13.44;61.45
55604;BME280;41468;48.838;9.330;2023-03-31T14:48:42;96876.13;;;13.51;61.45
55604;BME280;41468;48.838;9.330;2023-03-31T14:51:13;96880.28;;;13.59;61.42
55604;BME280;41468;48.838;9.330;2023-03-31T14:53:40;96868.72;;;13.52;60.31
55604;BME280;41468;48.838;9.330;2023-03-31T14:56:13;96875.81;;;13.49;61.53
55604;BME280;41468;48.838;9.330;2023-03-31T14:58:44;96874.13;;;13.55;60.54
55604;BME280;41468;48.838;9.330;2023-03-31T15:01:18;96873.97;;;13.62;61.48
55604;BME280;41468;48.838;9.330;2023-03-31T15:03:50;96869.25;;;13.63;60.38
55604;BME280;41468;48.838;9.330;2023-03-31T15:06:18;96867.47;;;13.73;60.49
55604;BME280;41468;48.838;9.330;2023-03-31T15:08:45;96864.19;;;13.61;60.58
55604;BME280;41468;48.838;9.330;2023-03-31T15:11:15;96857.84;;;13.64;61.26
55604;BME280;41468;48.838;9.330;2023-03-31T15:13:46;96845.03;;;13.78;60.07
55604;BME280;41468;48.838;9.330;2023-03-31T15:16:30;96846.88;;;13.84;61.16